Time,TemperatureF,DewpointF,PressureIn,WindDirection,WindDirectionDegrees,WindSpeedMPH,WindSpeedGustMPH,Humidity,HourlyPrecipIn,Conditions,Clouds,dailyrainin,SoftwareType,DateUTC
2013-02-18 00:01:00,26.3,21.8,29.99,NNE,28,0.0,0.0,83,0.00,,,0.00,Wunderground v.1.15,2013-02-18 08:01:00,
2013-02-18 00:11:00,26.3,21.8,29.99,NNE,28,1.0,1.0,83,0.00,,,0.00,Wunderground v.1.15,2013-02-18 08:11:00,
2013-02-18 00:16:00,26.4,21.9,29.99,NNE,28,1.0,1.0,83,0.00,,,0.00,Wunderground v.1.15,2013-02-18 08:16:00,
2013-02-18 00:26:00,26.4,21.7,29.99,NNE,28,0.0,1.0,82,0.00,,,0.00,Wunderground v.1.15,2013-02-18 08:26:00,
2013-02-18 00:36:00,26.4,21.4,29.99,South,180,1.0,1.0,81,0.00,,,0.00,Wunderground v.1.15,2013-02-18 08:36:00,
2013-02-18 00:46:00,26.6,21.6,29.98,South,171,2.0,2.0,81,0.00,,,0.00,Wunderground v.1.15,2013-02-18 08:46:00,
2013-02-18 00:56:00,26.7,21.4,29.98,South,171,0.0,1.0,80,0.00,,,0.00,Wunderground v.1.15,2013-02-18 08:56:00,
2013-02-18 01:11:00,26.7,21.1,29.97,SSE,166,1.0,1.0,79,0.00,,,0.00,Wunderground v.1.15,2013-02-18 09:11:00,
2013-02-18 01:16:00,26.7,20.8,29.98,SSE,162,1.0,2.0,78,0.00,,,0.00,Wunderground v.1.15,2013-02-18 09:16:00,
2013-02-18 01:27:00,26.7,20.5,29.98,SSE,153,1.0,4.0,77,0.00,,,0.00,Wunderground v.1.15,2013-02-18 09:27:00,
2013-02-18 01:41:00,26.7,20.1,29.97,South,178,1.0,1.0,76,0.00,,,0.00,Wunderground v.1.15,2013-02-18 09:41:00,
2013-02-18 01:46:00,26.7,20.1,29.97,South,178,0.0,1.0,76,0.00,,,0.00,Wunderground v.1.15,2013-02-18 09:46:00,
2013-02-18 01:56:00,26.6,20.4,29.97,South,176,0.0,0.0,77,0.00,,,0.00,Wunderground v.1.15,2013-02-18 09:56:00,
2013-02-18 02:11:00,26.6,20.4,29.97,SSE,152,1.0,2.0,77,0.00,,,0.00,Wunderground v.1.15,2013-02-18 10:11:00,
2013-02-18 02:16:00,26.6,20.7,29.96,SSE,152,1.0,2.0,78,0.00,,,0.00,Wunderground v.1.15,2013-02-18 10:16:00,
2013-02-18 02:31:00,26.5,20.9,29.96,SSE,152,0.0,0.0,79,0.00,,,0.00,Wunderground v.1.15,2013-02-18 10:31:00,
2013-02-18 02:36:00,26.5,20.9,29.96,SSE,152,0.0,0.0,79,0.00,,,0.00,Wunderground v.1.15,2013-02-18 10:36:00,
2013-02-18 02:46:00,26.4,21.1,29.96,SSE,154,1.0,2.0,80,0.00,,,0.00,Wunderground v.1.15,2013-02-18 10:46:00,
2013-02-18 02:56:00,26.3,21.0,29.96,SSE,154,0.0,1.0,80,0.00,,,0.00,Wunderground v.1.15,2013-02-18 10:56:00,
2013-02-18 03:11:00,26.2,21.5,29.95,SSE,154,1.0,2.0,82,0.00,,,0.00,Wunderground v.1.15,2013-02-18 11:11:00,
2013-02-18 03:16:00,26.2,21.5,29.94,SSE,154,1.0,2.0,82,0.00,,,0.00,Wunderground v.1.15,2013-02-18 11:16:00,
2013-02-18 03:27:00,26.1,21.6,29.94,SW,220,1.0,1.0,83,0.00,,,0.00,Wunderground v.1.15,2013-02-18 11:27:00,
2013-02-18 03:36:00,26.1,21.6,29.93,SSE,160,1.0,2.0,83,0.00,,,0.00,Wunderground v.1.15,2013-02-18 11:36:00,
2013-02-18 03:51:00,26.0,21.5,29.93,SSE,160,1.0,1.0,83,0.00,,,0.00,Wunderground v.1.15,2013-02-18 11:51:00,
2013-02-18 03:56:00,26.0,21.5,29.93,SSE,160,1.0,1.0,83,0.00,,,0.00,Wunderground v.1.15,2013-02-18 11:56:00,
2013-02-18 04:11:00,25.9,21.2,29.93,SSE,160,1.0,2.0,82,0.00,,,0.00,Wunderground v.1.15,2013-02-18 12:11:00,
2013-02-18 04:16:00,25.8,21.1,29.93,SSE,160,2.0,2.0,82,0.00,,,0.00,Wunderground v.1.15,2013-02-18 12:16:00,
2013-02-18 04:31:00,25.6,21.2,29.92,SSE,160,1.0,1.0,83,0.00,,,0.00,Wunderground v.1.15,2013-02-18 12:31:00,
2013-02-18 04:36:00,25.5,21.3,29.92,ESE,120,1.0,1.0,84,0.00,,,0.00,Wunderground v.1.15,2013-02-18 12:36:00,
2013-02-18 04:46:00,25.3,21.4,29.92,South,179,2.0,5.0,85,0.00,,,0.00,Wunderground v.1.15,2013-02-18 12:46:00,
2013-02-18 04:56:00,25.1,21.2,29.92,South,173,2.0,4.0,85,0.00,,,0.00,Wunderground v.1.15,2013-02-18 12:56:00,
2013-02-18 05:11:00,24.8,20.9,29.92,SSE,167,1.0,1.0,85,0.00,,,0.00,Wunderground v.1.15,2013-02-18 13:11:00,
2013-02-18 05:16:00,24.8,20.9,29.91,SSE,167,1.0,1.0,85,0.00,,,0.00,Wunderground v.1.15,2013-02-18 13:16:00,
2013-02-18 05:26:00,24.6,20.7,29.91,SSE,160,1.0,1.0,85,0.00,,,0.00,Wunderground v.1.15,2013-02-18 13:26:00,
2013-02-18 05:36:00,24.4,20.5,29.91,SSE,160,1.0,2.0,85,0.00,,,0.00,Wunderground v.1.15,2013-02-18 13:36:00,
2013-02-18 05:51:00,24.4,20.5,29.90,SSE,165,1.0,2.0,85,0.00,,,0.00,Wunderground v.1.15,2013-02-18 13:51:00,
2013-02-18 05:56:00,24.4,20.5,29.90,SSE,165,1.0,2.0,85,0.00,,,0.00,Wunderground v.1.15,2013-02-18 13:56:00,
2013-02-18 06:11:00,24.5,20.6,29.90,South,171,1.0,1.0,85,0.00,,,0.00,Wunderground v.1.15,2013-02-18 14:11:00,
2013-02-18 06:16:00,24.6,20.7,29.90,South,171,1.0,1.0,85,0.00,,,0.00,Wunderground v.1.15,2013-02-18 14:16:00,
2013-02-18 06:26:00,24.6,20.7,29.89,South,171,1.0,1.0,85,0.00,,,0.00,Wunderground v.1.15,2013-02-18 14:26:00,
2013-02-18 06:41:00,24.6,20.7,29.88,South,171,1.0,1.0,85,0.00,,,0.00,Wunderground v.1.15,2013-02-18 14:41:00,
2013-02-18 06:46:00,24.6,20.7,29.88,South,171,0.0,1.0,85,0.00,,,0.00,Wunderground v.1.15,2013-02-18 14:46:00,
2013-02-18 07:01:00,24.6,20.7,29.88,South,171,0.0,0.0,85,0.00,,,0.00,Wunderground v.1.15,2013-02-18 15:01:00,
2013-02-18 07:06:00,24.6,20.7,29.88,South,171,0.0,0.0,85,0.00,,,0.00,Wunderground v.1.15,2013-02-18 15:06:00,
2013-02-18 07:16:00,24.5,20.4,29.87,South,171,0.0,1.0,84,0.00,,,0.00,Wunderground v.1.15,2013-02-18 15:16:00,
2013-02-18 07:26:00,24.6,20.5,29.88,South,171,0.0,1.0,84,0.00,,,0.00,Wunderground v.1.15,2013-02-18 15:26:00,
2013-02-18 07:36:00,24.7,20.6,29.88,South,171,1.0,1.0,84,0.00,,,0.00,Wunderground v.1.15,2013-02-18 15:36:00,
2013-02-18 07:46:00,24.9,20.5,29.88,South,171,1.0,2.0,83,0.00,,,0.00,Wunderground v.1.15,2013-02-18 15:46:00,
2013-02-18 07:56:00,25.2,20.5,29.88,South,171,1.0,2.0,82,0.00,,,0.00,Wunderground v.1.15,2013-02-18 15:56:00,
2013-02-18 08:11:00,26.0,20.7,29.88,South,171,1.0,1.0,80,0.00,,,0.00,Wunderground v.1.15,2013-02-18 16:11:00,
2013-02-18 08:16:00,26.2,20.9,29.88,South,171,2.0,2.0,80,0.00,,,0.00,Wunderground v.1.15,2013-02-18 16:16:00,
2013-02-18 08:26:00,26.6,20.7,29.88,South,171,2.0,4.0,78,0.00,,,0.00,Wunderground v.1.15,2013-02-18 16:26:00,
2013-02-18 08:36:00,27.7,21.4,29.87,South,174,3.0,6.0,77,0.00,,,0.00,Wunderground v.1.15,2013-02-18 16:36:00,
2013-02-18 08:46:00,29.0,22.1,29.87,SW,215,2.0,4.0,75,0.00,,,0.00,Wunderground v.1.15,2013-02-18 16:46:00,
2013-02-18 08:56:00,30.2,22.3,29.86,South,177,4.0,5.0,72,0.00,,,0.00,Wunderground v.1.15,2013-02-18 16:56:00,
2013-02-18 09:11:00,31.3,23.0,29.87,SW,234,3.0,3.0,71,0.00,,,0.00,Wunderground v.1.15,2013-02-18 17:11:00,
2013-02-18 09:21:00,32.3,23.3,29.87,SSE,162,4.0,4.0,69,0.00,,,0.00,Wunderground v.1.15,2013-02-18 17:21:00,
2013-02-18 09:26:00,33.2,22.3,29.87,SSE,156,4.0,5.0,64,0.00,,,0.00,Wunderground v.1.15,2013-02-18 17:26:00,
2013-02-18 09:37:00,34.4,22.3,29.86,South,175,4.0,5.0,61,0.00,,,0.00,Wunderground v.1.15,2013-02-18 17:37:00,
2013-02-18 09:51:00,36.9,22.7,29.86,SSW,210,4.0,4.0,56,0.00,,,0.00,Wunderground v.1.15,2013-02-18 17:51:00,
2013-02-18 09:56:00,37.7,20.7,29.86,South,175,5.0,5.0,50,0.00,,,0.00,Wunderground v.1.15,2013-02-18 17:56:00,
2013-02-18 10:06:00,39.0,20.9,29.86,SSE,167,4.0,6.0,48,0.00,,,0.00,Wunderground v.1.15,2013-02-18 18:06:00,
2013-02-18 10:11:00,39.6,20.5,29.86,SSW,198,5.0,6.0,46,0.00,,,0.00,Wunderground v.1.15,2013-02-18 18:11:00,
2013-02-18 10:16:00,39.9,20.8,29.86,South,180,5.0,6.0,46,0.00,,,0.00,Wunderground v.1.15,2013-02-18 18:16:00,
2013-02-18 10:26:00,40.1,19.4,29.85,SE,142,5.0,6.0,43,0.00,,,0.00,Wunderground v.1.15,2013-02-18 18:26:00,
2013-02-18 10:36:00,40.1,19.4,29.86,SSW,199,4.0,4.0,43,0.00,,,0.00,Wunderground v.1.15,2013-02-18 18:36:00,
2013-02-18 10:46:00,40.7,19.9,29.86,SE,140,4.0,7.0,43,0.00,,,0.00,Wunderground v.1.15,2013-02-18 18:46:00,
2013-02-18 11:01:00,39.9,20.8,29.85,SW,231,2.0,10.0,46,0.00,,,0.00,Wunderground v.1.15,2013-02-18 19:01:00,
2013-02-18 11:11:00,39.9,21.3,29.85,SW,226,4.0,4.0,47,0.00,,,0.00,Wunderground v.1.15,2013-02-18 19:11:00,
2013-02-18 11:21:00,39.4,21.8,29.86,South,173,4.0,4.0,49,0.00,,,0.00,Wunderground v.1.15,2013-02-18 19:21:00,
2013-02-18 11:31:00,39.0,22.4,29.86,SSE,156,3.0,3.0,51,0.00,,,0.00,Wunderground v.1.15,2013-02-18 19:31:00,
2013-02-18 11:36:00,38.8,22.7,29.86,SSE,149,3.0,3.0,52,0.00,,,0.00,Wunderground v.1.15,2013-02-18 19:36:00,
2013-02-18 11:46:00,38.7,22.6,29.85,South,171,3.0,3.0,52,0.00,,,0.00,Wunderground v.1.15,2013-02-18 19:46:00,
2013-02-18 12:01:00,39.2,22.6,29.84,SW,235,2.0,2.0,51,0.00,,,0.00,Wunderground v.1.15,2013-02-18 20:01:00,
2013-02-18 12:11:00,39.0,21.9,29.84,SSW,197,3.0,3.0,50,0.00,,,0.00,Wunderground v.1.15,2013-02-18 20:11:00,
2013-02-18 12:17:00,38.9,22.8,29.83,SSE,153,3.0,4.0,52,0.00,,,0.00,Wunderground v.1.15,2013-02-18 20:17:00,
2013-02-18 12:26:00,38.6,22.0,29.83,South,177,3.0,4.0,51,0.00,,,0.00,Wunderground v.1.15,2013-02-18 20:26:00,
2013-02-18 12:36:00,38.6,22.5,29.83,SSE,163,2.0,3.0,52,0.00,,,0.00,Wunderground v.1.15,2013-02-18 20:36:00,
2013-02-18 12:46:00,38.5,21.5,29.82,SW,225,2.0,4.0,50,0.00,,,0.00,Wunderground v.1.15,2013-02-18 20:46:00,
2013-02-18 12:56:00,38.3,21.3,29.82,SW,226,2.0,4.0,50,0.00,,,0.00,Wunderground v.1.15,2013-02-18 20:56:00,
2013-02-18 13:11:00,37.9,20.4,29.81,SSW,209,2.0,2.0,49,0.00,,,0.00,Wunderground v.1.15,2013-02-18 21:11:00,
2013-02-18 13:26:00,37.9,20.4,29.80,SW,229,2.0,6.0,49,0.00,,,0.00,Wunderground v.1.15,2013-02-18 21:26:00,
2013-02-18 13:36:00,37.8,19.8,29.80,SW,235,3.0,5.0,48,0.00,,,0.00,Wunderground v.1.15,2013-02-18 21:36:00,
2013-02-18 13:47:00,37.9,19.9,29.80,SW,223,2.0,3.0,48,0.00,,,0.00,Wunderground v.1.15,2013-02-18 21:47:00,
2013-02-18 13:57:00,38.0,19.0,29.80,SW,225,2.0,3.0,46,0.00,,,0.00,Wunderground v.1.15,2013-02-18 21:57:00,
2013-02-18 14:11:00,38.3,19.3,29.80,SW,225,2.0,4.0,46,0.00,,,0.00,Wunderground v.1.15,2013-02-18 22:11:00,
2013-02-18 14:16:00,38.3,18.3,29.80,SW,236,3.0,5.0,44,0.00,,,0.00,Wunderground v.1.15,2013-02-18 22:16:00,
2013-02-18 14:26:00,38.5,19.0,29.79,SSW,205,2.0,5.0,45,0.00,,,0.00,Wunderground v.1.15,2013-02-18 22:26:00,
2013-02-18 14:36:00,38.7,18.1,29.79,SW,219,2.0,3.0,43,0.00,,,0.00,Wunderground v.1.15,2013-02-18 22:36:00,
2013-02-18 14:56:00,39.2,18.0,29.80,SSW,211,2.0,3.0,42,0.00,,,0.00,Wunderground v.1.15,2013-02-18 22:56:00,
2013-02-18 15:11:00,39.3,17.0,29.79,SSE,157,1.0,2.0,40,0.00,,,0.00,Wunderground v.1.15,2013-02-18 23:11:00,
2013-02-18 15:16:00,39.3,17.0,29.79,SSE,158,2.0,2.0,40,0.00,,,0.00,Wunderground v.1.15,2013-02-18 23:16:00,
2013-02-18 15:26:00,39.3,17.0,29.79,SSE,154,1.0,4.0,40,0.00,,,0.00,Wunderground v.1.15,2013-02-18 23:26:00,
2013-02-18 15:36:00,39.2,15.7,29.79,WNW,283,3.0,3.0,38,0.00,,,0.00,Wunderground v.1.15,2013-02-18 23:36:00,
2013-02-18 15:51:00,39.0,14.9,29.79,SE,134,1.0,2.0,37,0.00,,,0.00,Wunderground v.1.15,2013-02-18 23:51:00,
2013-02-18 15:56:00,39.0,16.1,29.79,SE,142,1.0,2.0,39,0.00,,,0.00,Wunderground v.1.15,2013-02-18 23:56:00,
2013-02-18 16:11:00,38.8,17.1,29.78,SW,214,4.0,4.0,41,0.00,,,0.00,Wunderground v.1.15,2013-02-19 00:11:00,
2013-02-18 16:21:00,38.4,16.7,29.78,WNW,286,4.0,4.0,41,0.00,,,0.00,Wunderground v.1.15,2013-02-19 00:21:00,
2013-02-18 16:27:00,38.1,16.4,29.78,WSW,256,5.0,5.0,41,0.00,,,0.00,Wunderground v.1.15,2013-02-19 00:27:00,
2013-02-18 16:41:00,37.3,15.7,29.78,SW,223,4.0,4.0,41,0.00,,,0.00,Wunderground v.1.15,2013-02-19 00:41:00,
2013-02-18 16:46:00,37.1,16.6,29.78,NNW,332,4.0,4.0,43,0.00,,,0.00,Wunderground v.1.15,2013-02-19 00:46:00,
2013-02-18 16:56:00,36.7,17.3,29.78,SW,232,3.0,7.0,45,0.00,,,0.00,Wunderground v.1.15,2013-02-19 00:56:00,
2013-02-18 17:16:00,36.2,19.3,29.77,SSW,201,3.0,5.0,50,0.00,,,0.00,Wunderground v.1.15,2013-02-19 01:16:00,
2013-02-18 17:31:00,35.6,19.7,29.77,SW,231,4.0,4.0,52,0.00,,,0.00,Wunderground v.1.15,2013-02-19 01:31:00,
2013-02-18 17:36:00,35.5,19.6,29.77,SW,231,2.0,4.0,52,0.00,,,0.00,Wunderground v.1.15,2013-02-19 01:36:00,
2013-02-18 17:51:00,35.0,18.7,29.77,SW,222,4.0,4.0,51,0.00,,,0.00,Wunderground v.1.15,2013-02-19 01:51:00,
2013-02-18 18:01:00,34.8,18.0,29.77,SW,219,3.0,4.0,50,0.00,,,0.00,Wunderground v.1.15,2013-02-19 02:01:00,
2013-02-18 18:11:00,34.5,18.7,29.77,SW,223,1.0,1.0,52,0.00,,,0.00,Wunderground v.1.15,2013-02-19 02:11:00,
2013-02-18 18:16:00,34.4,18.1,29.77,SW,223,1.0,1.0,51,0.00,,,0.00,Wunderground v.1.15,2013-02-19 02:16:00,
2013-02-18 18:26:00,34.0,18.2,29.76,SW,223,1.0,1.0,52,0.00,,,0.00,Wunderground v.1.15,2013-02-19 02:26:00,
2013-02-18 18:36:00,33.6,18.3,29.76,SW,220,2.0,2.0,53,0.00,,,0.00,Wunderground v.1.15,2013-02-19 02:36:00,
2013-02-18 18:46:00,33.1,19.1,29.76,WNW,294,2.0,2.0,56,0.00,,,0.00,Wunderground v.1.15,2013-02-19 02:46:00,
2013-02-18 18:56:00,32.8,18.4,29.76,SW,216,1.0,2.0,55,0.00,,,0.00,Wunderground v.1.15,2013-02-19 02:56:00,
2013-02-18 19:06:00,32.7,19.1,29.76,SW,216,2.0,2.0,57,0.00,,,0.00,Wunderground v.1.15,2013-02-19 03:06:00,
2013-02-18 19:11:00,32.6,19.4,29.76,SW,216,1.0,2.0,58,0.00,,,0.00,Wunderground v.1.15,2013-02-19 03:11:00,
2013-02-18 19:16:00,32.5,19.7,29.75,SW,216,0.0,0.0,59,0.00,,,0.00,Wunderground v.1.15,2013-02-19 03:16:00,
2013-02-18 19:26:00,32.1,19.0,29.75,SW,216,0.0,0.0,58,0.00,,,0.00,Wunderground v.1.15,2013-02-19 03:26:00,
2013-02-18 19:36:00,31.9,19.6,29.75,SW,216,0.0,0.0,60,0.00,,,0.00,Wunderground v.1.15,2013-02-19 03:36:00,
2013-02-18 19:46:00,31.7,19.8,29.74,SW,216,0.0,0.0,61,0.00,,,0.00,Wunderground v.1.15,2013-02-19 03:46:00,
2013-02-18 19:56:00,31.4,19.9,29.74,SW,216,0.0,0.0,62,0.00,,,0.00,Wunderground v.1.15,2013-02-19 03:56:00,
2013-02-18 20:11:00,30.8,20.4,29.74,SW,216,0.0,0.0,65,0.00,,,0.00,Wunderground v.1.15,2013-02-19 04:11:00,
2013-02-18 20:16:00,30.6,20.2,29.74,SW,216,0.0,1.0,65,0.00,,,0.00,Wunderground v.1.15,2013-02-19 04:16:00,
2013-02-18 20:26:00,30.1,20.1,29.74,SW,216,1.0,1.0,66,0.00,,,0.00,Wunderground v.1.15,2013-02-19 04:26:00,
2013-02-18 20:36:00,29.6,20.3,29.74,SW,216,0.0,1.0,68,0.00,,,0.00,Wunderground v.1.15,2013-02-19 04:36:00,
2013-02-18 20:46:00,29.3,20.4,29.73,SW,216,1.0,2.0,69,0.00,,,0.00,Wunderground v.1.15,2013-02-19 04:46:00,
2013-02-18 20:56:00,29.0,20.4,29.73,SW,216,1.0,1.0,70,0.00,,,0.00,Wunderground v.1.15,2013-02-19 04:56:00,
2013-02-18 21:01:00,28.9,20.3,29.73,SW,216,0.0,0.0,70,0.00,,,0.00,Wunderground v.1.15,2013-02-19 05:01:00,
2013-02-18 21:11:00,28.7,20.1,29.73,SW,216,0.0,0.0,70,0.00,,,0.00,Wunderground v.1.15,2013-02-19 05:11:00,
2013-02-18 21:16:00,28.6,20.7,29.73,SW,216,0.0,0.0,72,0.00,,,0.00,Wunderground v.1.15,2013-02-19 05:16:00,
2013-02-18 21:26:00,28.1,20.6,29.72,SW,216,0.0,1.0,73,0.00,,,0.00,Wunderground v.1.15,2013-02-19 05:26:00,
2013-02-18 21:36:00,27.8,20.6,29.72,SW,216,0.0,0.0,74,0.00,,,0.00,Wunderground v.1.15,2013-02-19 05:36:00,
2013-02-18 21:46:00,27.4,20.2,29.72,SW,216,0.0,0.0,74,0.00,,,0.00,Wunderground v.1.15,2013-02-19 05:46:00,
2013-02-18 21:56:00,27.0,20.1,29.72,SW,216,0.0,0.0,75,0.00,,,0.00,Wunderground v.1.15,2013-02-19 05:56:00,
2013-02-18 22:11:00,26.7,20.1,29.71,SW,216,0.0,1.0,76,0.00,,,0.00,Wunderground v.1.15,2013-02-19 06:11:00,
2013-02-18 22:16:00,26.5,20.3,29.71,SW,216,0.0,1.0,77,0.00,,,0.00,Wunderground v.1.15,2013-02-19 06:16:00,
2013-02-18 22:26:00,26.4,20.5,29.70,SW,216,1.0,2.0,78,0.00,,,0.00,Wunderground v.1.15,2013-02-19 06:26:00,
2013-02-18 22:36:00,26.4,20.5,29.70,SW,216,1.0,1.0,78,0.00,,,0.00,Wunderground v.1.15,2013-02-19 06:36:00,
2013-02-18 22:51:00,26.5,20.6,29.70,SW,216,1.0,1.0,78,0.00,,,0.00,Wunderground v.1.15,2013-02-19 06:51:00,
2013-02-18 22:56:00,26.5,20.6,29.69,SW,216,1.0,1.0,78,0.00,,,0.00,Wunderground v.1.15,2013-02-19 06:56:00,
2013-02-18 23:11:00,26.5,20.6,29.69,SW,216,1.0,1.0,78,0.00,,,0.00,Wunderground v.1.15,2013-02-19 07:11:00,
2013-02-18 23:16:00,26.5,20.6,29.69,SW,216,0.0,1.0,78,0.00,,,0.00,Wunderground v.1.15,2013-02-19 07:16:00,
2013-02-18 23:26:00,26.5,20.9,29.69,SW,216,1.0,1.0,79,0.00,,,0.00,Wunderground v.1.15,2013-02-19 07:26:00,
2013-02-18 23:36:00,26.5,20.9,29.68,SW,216,1.0,1.0,79,0.00,,,0.00,Wunderground v.1.15,2013-02-19 07:36:00,
2013-02-18 23:46:00,26.4,20.8,29.68,SW,216,0.0,1.0,79,0.00,,,0.00,Wunderground v.1.15,2013-02-19 07:46:00,